sensor_id;sensor_type;location;lat;lon;timestamp;P1;durP1;ratioP1;P2;durP2;ratioP2
4786;SDS011;62338;48.832;9.422;2023-03-31T00:00:59;6.17;;;1.60;;
4786;SDS011;62338;48.832;9.422;2023-03-31T00:03:01;6.67;;;2.00;;
4786;SDS011;62338;48.832;9.422;2023-03-31T00:05:03;4.70;;;1.67;;
4786;SDS011;62338;48.832;9.422;2023-03-31T00:07:06;7.40;;;2.23;;
4786;SDS011;62338;48.832;9.422;2023-03-31T00:09:09;6.17;;;1.60;;
4786;SDS011;62338;48.832;9.422;2023-03-31T00:11:13;7.60;;;2.07;;
4786;SDS011;62338;48.832;9.422;2023-03-31T00:13:15;8.20;;;2.00;;
4786;SDS011;62338;48.832;9.422;2023-03-31T00:15:17;4.80;;;1.60;;
4786;SDS011;62338;48.832;9.422;2023-03-31T00:17:19;6.97;;;1.40;;
4786;SDS011;62338;48.832;9.422;2023-03-31T00:19:21;4.03;;;1.40;;
4786;SDS011;62338;48.832;9.422;2023-03-31T00:21:22;8.23;;;1.70;;
4786;SDS011;62338;48.832;9.422;2023-03-31T00:23:25;5.63;;;1.70;;
4786;SDS011;62338;48.832;9.422;2023-03-31T00:25:28;5.60;;;1.60;;
4786;SDS011;62338;48.832;9.422;2023-03-31T00:27:30;6.03;;;1.70;;
4786;SDS011;62338;48.832;9.422;2023-03-31T00:29:31;6.47;;;1.60;;
4786;SDS011;62338;48.832;9.422;2023-03-31T00:31:36;7.77;;;2.17;;
4786;SDS011;62338;48.832;9.422;2023-03-31T00:33:39;4.23;;;1.47;;
4786;SDS011;62338;48.832;9.422;2023-03-31T00:35:41;7.73;;;1.90;;
4786;SDS011;62338;48.832;9.422;2023-03-31T00:37:43;7.27;;;1.47;;
4786;SDS011;62338;48.832;9.422;2023-03-31T00:39:46;6.77;;;2.00;;
4786;SDS011;62338;48.832;9.422;2023-03-31T00:41:48;8.97;;;2.43;;
4786;SDS011;62338;48.832;9.422;2023-03-31T00:44:10;9.00;;;1.80;;
4786;SDS011;62338;48.832;9.422;2023-03-31T00:46:19;7.23;;;1.93;;
4786;SDS011;62338;48.832;9.422;2023-03-31T00:48:29;6.73;;;2.00;;
4786;SDS011;62338;48.832;9.422;2023-03-31T00:50:34;16.70;;;2.00;;
4786;SDS011;62338;48.832;9.422;2023-03-31T00:52:40;10.03;;;2.33;;
4786;SDS011;62338;48.832;9.422;2023-03-31T00:54:43;5.60;;;2.00;;
4786;SDS011;62338;48.832;9.422;2023-03-31T00:56:46;5.50;;;1.83;;
4786;SDS011;62338;48.832;9.422;2023-03-31T00:58:50;8.10;;;1.97;;
4786;SDS011;62338;48.832;9.422;2023-03-31T01:00:54;9.10;;;1.60;;
4786;SDS011;62338;48.832;9.422;2023-03-31T01:02:59;6.80;;;1.80;;
4786;SDS011;62338;48.832;9.422;2023-03-31T01:05:05;3.83;;;1.67;;
4786;SDS011;62338;48.832;9.422;2023-03-31T01:07:17;8.87;;;1.60;;
4786;SDS011;62338;48.832;9.422;2023-03-31T01:09:31;7.40;;;1.80;;
4786;SDS011;62338;48.832;9.422;2023-03-31T01:11:35;6.73;;;1.83;;
4786;SDS011;62338;48.832;9.422;2023-03-31T01:13:38;4.30;;;1.70;;
4786;SDS011;62338;48.832;9.422;2023-03-31T01:15:41;5.47;;;1.97;;
4786;SDS011;62338;48.832;9.422;2023-03-31T01:17:43;5.93;;;1.60;;
4786;SDS011;62338;48.832;9.422;2023-03-31T01:19:51;6.40;;;1.77;;
4786;SDS011;62338;48.832;9.422;2023-03-31T01:22:08;7.07;;;1.87;;
4786;SDS011;62338;48.832;9.422;2023-03-31T01:24:42;5.80;;;1.80;;
4786;SDS011;62338;48.832;9.422;2023-03-31T01:34:34;7.63;;;2.17;;
4786;SDS011;62338;48.832;9.422;2023-03-31T01:37:29;5.33;;;1.70;;
4786;SDS011;62338;48.832;9.422;2023-03-31T01:39:49;7.63;;;1.80;;
4786;SDS011;62338;48.832;9.422;2023-03-31T01:51:09;9.90;;;2.50;;
4786;SDS011;62338;48.832;9.422;2023-03-31T01:53:22;10.60;;;2.27;;
4786;SDS011;62338;48.832;9.422;2023-03-31T01:55:38;6.63;;;2.10;;
4786;SDS011;62338;48.832;9.422;2023-03-31T01:58:07;8.23;;;2.20;;
4786;SDS011;62338;48.832;9.422;2023-03-31T02:00:18;6.07;;;1.77;;
4786;SDS011;62338;48.832;9.422;2023-03-31T02:02:27;9.47;;;2.10;;
4786;SDS011;62338;48.832;9.422;2023-03-31T02:04:42;8.20;;;1.80;;
4786;SDS011;62338;48.832;9.422;2023-03-31T02:06:56;9.33;;;2.47;;
4786;SDS011;62338;48.832;9.422;2023-03-31T02:09:05;9.60;;;2.70;;
4786;SDS011;62338;48.832;9.422;2023-03-31T02:11:12;6.27;;;2.10;;
4786;SDS011;62338;48.832;9.422;2023-03-31T02:13:14;5.60;;;1.90;;
4786;SDS011;62338;48.832;9.422;2023-03-31T02:15:19;7.30;;;1.80;;
4786;SDS011;62338;48.832;9.422;2023-03-31T02:17:24;5.63;;;1.73;;
4786;SDS011;62338;48.832;9.422;2023-03-31T02:19:32;6.20;;;1.80;;
4786;SDS011;62338;48.832;9.422;2023-03-31T02:21:36;6.90;;;1.90;;
4786;SDS011;62338;48.832;9.422;2023-03-31T02:23:40;7.30;;;2.43;;
4786;SDS011;62338;48.832;9.422;2023-03-31T02:25:46;9.17;;;2.03;;
4786;SDS011;62338;48.832;9.422;2023-03-31T02:28:13;5.90;;;2.00;;
4786;SDS011;62338;48.832;9.422;2023-03-31T02:30:17;7.27;;;1.90;;
4786;SDS011;62338;48.832;9.422;2023-03-31T02:34:38;6.80;;;1.90;;
4786;SDS011;62338;48.832;9.422;2023-03-31T02:36:40;9.23;;;1.97;;
4786;SDS011;62338;48.832;9.422;2023-03-31T02:38:51;4.60;;;1.80;;
4786;SDS011;62338;48.832;9.422;2023-03-31T02:40:58;6.70;;;2.13;;
4786;SDS011;62338;48.832;9.422;2023-03-31T02:43:00;7.13;;;1.80;;
4786;SDS011;62338;48.832;9.422;2023-03-31T02:45:03;8.53;;;2.37;;
4786;SDS011;62338;48.832;9.422;2023-03-31T02:47:07;7.97;;;1.70;;
4786;SDS011;62338;48.832;9.422;2023-03-31T02:49:12;7.30;;;2.33;;
4786;SDS011;62338;48.832;9.422;2023-03-31T03:08:18;8.37;;;2.80;;
4786;SDS011;62338;48.832;9.422;2023-03-31T03:10:44;7.33;;;2.20;;
4786;SDS011;62338;48.832;9.422;2023-03-31T03:15:25;6.23;;;2.07;;
4786;SDS011;62338;48.832;9.422;2023-03-31T03:17:39;5.17;;;2.00;;
4786;SDS011;62338;48.832;9.422;2023-03-31T03:19:49;9.33;;;2.17;;
4786;SDS011;62338;48.832;9.422;2023-03-31T03:21:53;4.33;;;1.90;;
4786;SDS011;62338;48.832;9.422;2023-03-31T03:23:55;5.70;;;2.07;;
4786;SDS011;62338;48.832;9.422;2023-03-31T03:25:57;5.40;;;2.10;;
4786;SDS011;62338;48.832;9.422;2023-03-31T03:27:59;9.33;;;2.70;;
4786;SDS011;62338;48.832;9.422;2023-03-31T03:30:01;9.40;;;2.00;;
4786;SDS011;62338;48.832;9.422;2023-03-31T03:32:05;9.80;;;2.53;;
4786;SDS011;62338;48.832;9.422;2023-03-31T03:34:07;5.10;;;1.97;;
4786;SDS011;62338;48.832;9.422;2023-03-31T03:36:10;6.07;;;1.97;;
4786;SDS011;62338;48.832;9.422;2023-03-31T03:38:11;6.27;;;2.20;;
4786;SDS011;62338;48.832;9.422;2023-03-31T03:40:13;6.30;;;2.23;;
4786;SDS011;62338;48.832;9.422;2023-03-31T03:42:15;4.83;;;1.90;;
4786;SDS011;62338;48.832;9.422;2023-03-31T03:44:17;6.90;;;2.37;;
4786;SDS011;62338;48.832;9.422;2023-03-31T03:46:19;5.17;;;2.10;;
4786;SDS011;62338;48.832;9.422;2023-03-31T03:48:20;4.20;;;1.73;;
4786;SDS011;62338;48.832;9.422;2023-03-31T03:50:22;4.77;;;2.10;;
4786;SDS011;62338;48.832;9.422;2023-03-31T03:52:24;10.27;;;2.70;;
4786;SDS011;62338;48.832;9.422;2023-03-31T03:54:26;6.00;;;2.30;;
4786;SDS011;62338;48.832;9.422;2023-03-31T03:56:28;7.83;;;2.07;;
4786;SDS011;62338;48.832;9.422;2023-03-31T03:58:30;7.33;;;1.90;;
4786;SDS011;62338;48.832;9.422;2023-03-31T04:00:32;5.27;;;2.20;;
4786;SDS011;62338;48.832;9.422;2023-03-31T04:02:34;4.87;;;2.10;;
4786;SDS011;62338;48.832;9.422;2023-03-31T04:04:37;6.70;;;2.80;;
4786;SDS011;62338;48.832;9.422;2023-03-31T04:06:38;4.83;;;1.80;;
4786;SDS011;62338;48.832;9.422;2023-03-31T04:08:40;5.53;;;2.17;;
4786;SDS011;62338;48.832;9.422;2023-03-31T04:10:43;5.70;;;2.40;;
4786;SDS011;62338;48.832;9.422;2023-03-31T04:12:49;6.43;;;2.30;;
4786;SDS011;62338;48.832;9.422;2023-03-31T04:14:51;6.60;;;2.40;;
4786;SDS011;62338;48.832;9.422;2023-03-31T04:16:53;5.77;;;2.30;;
4786;SDS011;62338;48.832;9.422;2023-03-31T04:18:56;5.87;;;2.03;;
4786;SDS011;62338;48.832;9.422;2023-03-31T04:20:59;5.70;;;2.10;;
4786;SDS011;62338;48.832;9.422;2023-03-31T04:23:07;4.90;;;2.17;;
4786;SDS011;62338;48.832;9.422;2023-03-31T04:25:10;5.00;;;2.40;;
4786;SDS011;62338;48.832;9.422;2023-03-31T04:27:16;10.30;;;3.37;;
4786;SDS011;62338;48.832;9.422;2023-03-31T04:29:18;9.20;;;2.50;;
4786;SDS011;62338;48.832;9.422;2023-03-31T04:31:22;6.80;;;2.63;;
4786;SDS011;62338;48.832;9.422;2023-03-31T04:33:27;7.03;;;2.93;;
4786;SDS011;62338;48.832;9.422;2023-03-31T04:35:29;9.20;;;2.70;;
4786;SDS011;62338;48.832;9.422;2023-03-31T04:37:51;6.40;;;2.63;;
4786;SDS011;62338;48.832;9.422;2023-03-31T04:40:00;12.00;;;2.67;;
4786;SDS011;62338;48.832;9.422;2023-03-31T04:42:08;13.53;;;2.73;;
4786;SDS011;62338;48.832;9.422;2023-03-31T04:44:10;9.23;;;3.23;;
4786;SDS011;62338;48.832;9.422;2023-03-31T04:46:12;9.83;;;2.73;;
4786;SDS011;62338;48.832;9.422;2023-03-31T04:48:14;7.30;;;2.93;;
4786;SDS011;62338;48.832;9.422;2023-03-31T04:50:16;7.20;;;3.13;;
4786;SDS011;62338;48.832;9.422;2023-03-31T04:52:18;5.87;;;3.33;;
4786;SDS011;62338;48.832;9.422;2023-03-31T04:54:20;8.07;;;2.80;;
4786;SDS011;62338;48.832;9.422;2023-03-31T04:56:22;9.83;;;2.90;;
4786;SDS011;62338;48.832;9.422;2023-03-31T04:58:23;5.20;;;2.23;;
4786;SDS011;62338;48.832;9.422;2023-03-31T05:00:25;9.20;;;3.43;;
4786;SDS011;62338;48.832;9.422;2023-03-31T05:02:29;7.17;;;3.10;;
4786;SDS011;62338;48.832;9.422;2023-03-31T05:04:31;9.33;;;2.70;;
4786;SDS011;62338;48.832;9.422;2023-03-31T05:06:32;5.57;;;2.50;;
4786;SDS011;62338;48.832;9.422;2023-03-31T05:08:34;5.20;;;2.70;;
4786;SDS011;62338;48.832;9.422;2023-03-31T05:10:36;8.90;;;2.50;;
4786;SDS011;62338;48.832;9.422;2023-03-31T05:12:38;3.67;;;2.20;;
4786;SDS011;62338;48.832;9.422;2023-03-31T05:14:40;6.50;;;2.80;;
4786;SDS011;62338;48.832;9.422;2023-03-31T05:16:42;7.60;;;3.00;;
4786;SDS011;62338;48.832;9.422;2023-03-31T05:18:44;8.03;;;3.20;;
4786;SDS011;62338;48.832;9.422;2023-03-31T05:20:46;7.40;;;3.40;;
4786;SDS011;62338;48.832;9.422;2023-03-31T05:22:48;9.03;;;2.90;;
4786;SDS011;62338;48.832;9.422;2023-03-31T05:24:51;10.30;;;3.40;;
4786;SDS011;62338;48.832;9.422;2023-03-31T05:26:53;5.30;;;2.90;;
4786;SDS011;62338;48.832;9.422;2023-03-31T05:28:57;5.47;;;2.60;;
4786;SDS011;62338;48.832;9.422;2023-03-31T05:30:59;7.97;;;2.93;;
4786;SDS011;62338;48.832;9.422;2023-03-31T05:33:02;6.00;;;2.83;;
4786;SDS011;62338;48.832;9.422;2023-03-31T05:35:04;8.83;;;3.87;;
4786;SDS011;62338;48.832;9.422;2023-03-31T05:37:06;8.50;;;3.17;;
4786;SDS011;62338;48.832;9.422;2023-03-31T05:39:08;5.67;;;2.87;;
4786;SDS011;62338;48.832;9.422;2023-03-31T05:41:10;10.13;;;3.20;;
4786;SDS011;62338;48.832;9.422;2023-03-31T05:43:12;10.10;;;3.43;;
4786;SDS011;62338;48.832;9.422;2023-03-31T05:45:14;10.57;;;3.50;;
4786;SDS011;62338;48.832;9.422;2023-03-31T05:47:16;12.97;;;4.47;;
4786;SDS011;62338;48.832;9.422;2023-03-31T05:49:18;8.70;;;3.77;;
4786;SDS011;62338;48.832;9.422;2023-03-31T05:51:20;12.40;;;3.60;;
4786;SDS011;62338;48.832;9.422;2023-03-31T05:53:23;6.40;;;3.03;;
4786;SDS011;62338;48.832;9.422;2023-03-31T05:55:25;10.93;;;5.57;;
4786;SDS011;62338;48.832;9.422;2023-03-31T05:57:27;14.70;;;4.97;;
4786;SDS011;62338;48.832;9.422;2023-03-31T05:59:29;16.67;;;4.40;;
4786;SDS011;62338;48.832;9.422;2023-03-31T06:01:31;14.00;;;5.40;;
4786;SDS011;62338;48.832;9.422;2023-03-31T06:03:34;16.87;;;4.67;;
4786;SDS011;62338;48.832;9.422;2023-03-31T06:05:37;14.27;;;5.30;;
4786;SDS011;62338;48.832;9.422;2023-03-31T06:07:39;17.43;;;4.83;;
4786;SDS011;62338;48.832;9.422;2023-03-31T06:09:41;8.37;;;5.00;;
4786;SDS011;62338;48.832;9.422;2023-03-31T06:11:43;15.90;;;4.93;;
4786;SDS011;62338;48.832;9.422;2023-03-31T06:13:45;12.47;;;4.70;;
4786;SDS011;62338;48.832;9.422;2023-03-31T06:15:57;9.33;;;4.70;;
4786;SDS011;62338;48.832;9.422;2023-03-31T06:18:00;10.33;;;4.97;;
4786;SDS011;62338;48.832;9.422;2023-03-31T06:20:01;14.63;;;5.47;;
4786;SDS011;62338;48.832;9.422;2023-03-31T06:22:24;14.90;;;5.27;;
4786;SDS011;62338;48.832;9.422;2023-03-31T06:24:26;20.93;;;5.43;;
4786;SDS011;62338;48.832;9.422;2023-03-31T06:26:28;12.53;;;5.67;;
4786;SDS011;62338;48.832;9.422;2023-03-31T06:28:29;14.97;;;6.00;;
4786;SDS011;62338;48.832;9.422;2023-03-31T06:30:40;18.60;;;5.97;;
4786;SDS011;62338;48.832;9.422;2023-03-31T06:32:43;11.77;;;5.07;;
4786;SDS011;62338;48.832;9.422;2023-03-31T06:34:44;17.27;;;5.20;;
4786;SDS011;62338;48.832;9.422;2023-03-31T06:36:46;12.93;;;5.10;;
4786;SDS011;62338;48.832;9.422;2023-03-31T06:38:49;13.83;;;5.40;;
4786;SDS011;62338;48.832;9.422;2023-03-31T06:40:51;8.90;;;4.90;;
4786;SDS011;62338;48.832;9.422;2023-03-31T06:42:53;10.47;;;4.83;;
4786;SDS011;62338;48.832;9.422;2023-03-31T06:44:55;10.37;;;5.10;;
4786;SDS011;62338;48.832;9.422;2023-03-31T06:46:57;11.07;;;4.93;;
4786;SDS011;62338;48.832;9.422;2023-03-31T06:48:59;12.27;;;5.50;;
4786;SDS011;62338;48.832;9.422;2023-03-31T06:51:01;12.73;;;5.33;;
4786;SDS011;62338;48.832;9.422;2023-03-31T06:53:05;9.30;;;5.33;;
4786;SDS011;62338;48.832;9.422;2023-03-31T06:55:07;14.10;;;5.60;;
4786;SDS011;62338;48.832;9.422;2023-03-31T06:57:10;15.40;;;6.23;;
4786;SDS011;62338;48.832;9.422;2023-03-31T06:59:12;19.50;;;6.27;;
4786;SDS011;62338;48.832;9.422;2023-03-31T07:01:13;15.20;;;5.43;;
4786;SDS011;62338;48.832;9.422;2023-03-31T07:03:15;10.37;;;6.53;;
4786;SDS011;62338;48.832;9.422;2023-03-31T07:05:19;12.67;;;6.50;;
4786;SDS011;62338;48.832;9.422;2023-03-31T07:07:29;16.63;;;6.47;;
4786;SDS011;62338;48.832;9.422;2023-03-31T07:09:32;15.60;;;6.60;;
4786;SDS011;62338;48.832;9.422;2023-03-31T07:11:34;16.63;;;7.80;;
4786;SDS011;62338;48.832;9.422;2023-03-31T07:13:36;15.40;;;6.70;;
4786;SDS011;62338;48.832;9.422;2023-03-31T07:15:38;20.87;;;7.60;;
4786;SDS011;62338;48.832;9.422;2023-03-31T07:17:40;12.83;;;6.57;;
4786;SDS011;62338;48.832;9.422;2023-03-31T07:19:42;16.50;;;6.70;;
4786;SDS011;62338;48.832;9.422;2023-03-31T07:21:48;12.20;;;6.10;;
4786;SDS011;62338;48.832;9.422;2023-03-31T07:23:51;7.57;;;4.00;;
4786;SDS011;62338;48.832;9.422;2023-03-31T07:25:53;11.50;;;6.00;;
4786;SDS011;62338;48.832;9.422;2023-03-31T07:27:55;12.30;;;5.60;;
4786;SDS011;62338;48.832;9.422;2023-03-31T07:29:57;15.40;;;6.83;;
4786;SDS011;62338;48.832;9.422;2023-03-31T07:31:58;9.53;;;5.00;;
4786;SDS011;62338;48.832;9.422;2023-03-31T07:34:01;7.83;;;4.37;;
4786;SDS011;62338;48.832;9.422;2023-03-31T07:36:04;6.40;;;3.80;;
4786;SDS011;62338;48.832;9.422;2023-03-31T07:38:14;9.10;;;3.40;;
4786;SDS011;62338;48.832;9.422;2023-03-31T07:40:20;4.53;;;3.17;;
4786;SDS011;62338;48.832;9.422;2023-03-31T07:42:26;6.33;;;3.10;;
4786;SDS011;62338;48.832;9.422;2023-03-31T07:44:28;7.37;;;2.93;;
4786;SDS011;62338;48.832;9.422;2023-03-31T07:46:30;5.67;;;2.80;;
4786;SDS011;62338;48.832;9.422;2023-03-31T07:48:32;8.17;;;3.17;;
4786;SDS011;62338;48.832;9.422;2023-03-31T07:50:34;6.30;;;3.20;;
4786;SDS011;62338;48.832;9.422;2023-03-31T07:52:36;3.70;;;2.30;;
4786;SDS011;62338;48.832;9.422;2023-03-31T07:54:38;14.13;;;3.20;;
4786;SDS011;62338;48.832;9.422;2023-03-31T07:56:40;4.80;;;2.80;;
4786;SDS011;62338;48.832;9.422;2023-03-31T07:58:42;7.87;;;3.27;;
4786;SDS011;62338;48.832;9.422;2023-03-31T08:00:45;6.47;;;3.00;;
4786;SDS011;62338;48.832;9.422;2023-03-31T08:02:47;4.63;;;2.20;;
4786;SDS011;62338;48.832;9.422;2023-03-31T08:04:49;5.10;;;1.67;;
4786;SDS011;62338;48.832;9.422;2023-03-31T08:06:51;4.20;;;2.23;;
4786;SDS011;62338;48.832;9.422;2023-03-31T08:08:53;7.23;;;2.60;;
4786;SDS011;62338;48.832;9.422;2023-03-31T08:10:55;3.27;;;1.50;;
4786;SDS011;62338;48.832;9.422;2023-03-31T08:12:57;4.63;;;2.00;;
4786;SDS011;62338;48.832;9.422;2023-03-31T08:14:59;4.60;;;2.03;;
4786;SDS011;62338;48.832;9.422;2023-03-31T08:17:01;3.27;;;1.60;;
4786;SDS011;62338;48.832;9.422;2023-03-31T08:19:04;2.37;;;1.10;;
4786;SDS011;62338;48.832;9.422;2023-03-31T08:21:06;3.90;;;2.00;;
4786;SDS011;62338;48.832;9.422;2023-03-31T08:23:09;6.23;;;1.47;;
4786;SDS011;62338;48.832;9.422;2023-03-31T08:25:12;3.20;;;1.70;;
4786;SDS011;62338;48.832;9.422;2023-03-31T08:27:14;3.70;;;1.60;;
4786;SDS011;62338;48.832;9.422;2023-03-31T08:29:16;3.60;;;1.50;;
4786;SDS011;62338;48.832;9.422;2023-03-31T08:31:18;4.23;;;1.30;;
4786;SDS011;62338;48.832;9.422;2023-03-31T08:33:21;4.03;;;1.40;;
4786;SDS011;62338;48.832;9.422;2023-03-31T08:35:23;3.30;;;1.23;;
4786;SDS011;62338;48.832;9.422;2023-03-31T08:37:25;2.73;;;1.00;;
4786;SDS011;62338;48.832;9.422;2023-03-31T08:39:31;3.60;;;1.30;;
4786;SDS011;62338;48.832;9.422;2023-03-31T08:41:46;2.50;;;1.13;;
4786;SDS011;62338;48.832;9.422;2023-03-31T08:44:02;3.17;;;1.30;;
4786;SDS011;62338;48.832;9.422;2023-03-31T08:46:09;2.87;;;1.10;;
4786;SDS011;62338;48.832;9.422;2023-03-31T08:50:33;3.37;;;1.20;;
4786;SDS011;62338;48.832;9.422;2023-03-31T08:52:49;2.73;;;1.30;;
4786;SDS011;62338;48.832;9.422;2023-03-31T08:54:57;3.23;;;1.20;;
4786;SDS011;62338;48.832;9.422;2023-03-31T08:57:02;3.63;;;1.40;;
4786;SDS011;62338;48.832;9.422;2023-03-31T08:59:32;2.97;;;1.37;;
4786;SDS011;62338;48.832;9.422;2023-03-31T09:06:37;4.23;;;1.30;;
4786;SDS011;62338;48.832;9.422;2023-03-31T09:08:41;4.37;;;1.40;;
4786;SDS011;62338;48.832;9.422;2023-03-31T09:11:05;4.40;;;1.00;;
4786;SDS011;62338;48.832;9.422;2023-03-31T09:15:34;4.07;;;1.43;;
4786;SDS011;62338;48.832;9.422;2023-03-31T09:17:42;5.30;;;1.73;;
4786;SDS011;62338;48.832;9.422;2023-03-31T09:19:48;8.30;;;1.40;;
4786;SDS011;62338;48.832;9.422;2023-03-31T09:21:54;5.33;;;1.33;;
4786;SDS011;62338;48.832;9.422;2023-03-31T09:26:23;3.40;;;1.30;;
4786;SDS011;62338;48.832;9.422;2023-03-31T09:28:46;4.53;;;1.10;;
4786;SDS011;62338;48.832;9.422;2023-03-31T09:30:48;4.63;;;1.80;;
4786;SDS011;62338;48.832;9.422;2023-03-31T09:33:13;5.20;;;1.40;;
4786;SDS011;62338;48.832;9.422;2023-03-31T09:35:16;7.87;;;1.67;;
4786;SDS011;62338;48.832;9.422;2023-03-31T09:37:24;3.83;;;1.23;;
4786;SDS011;62338;48.832;9.422;2023-03-31T09:39:30;4.83;;;1.30;;
4786;SDS011;62338;48.832;9.422;2023-03-31T09:41:32;6.77;;;1.30;;
4786;SDS011;62338;48.832;9.422;2023-03-31T09:43:34;4.17;;;1.03;;
4786;SDS011;62338;48.832;9.422;2023-03-31T09:45:36;3.60;;;1.13;;
4786;SDS011;62338;48.832;9.422;2023-03-31T09:47:40;5.03;;;1.20;;
4786;SDS011;62338;48.832;9.422;2023-03-31T09:49:44;5.47;;;1.37;;
4786;SDS011;62338;48.832;9.422;2023-03-31T09:52:05;6.60;;;1.50;;
4786;SDS011;62338;48.832;9.422;2023-03-31T09:54:40;2.93;;;1.30;;
4786;SDS011;62338;48.832;9.422;2023-03-31T09:56:49;4.93;;;1.33;;
4786;SDS011;62338;48.832;9.422;2023-03-31T09:58:54;3.57;;;1.37;;
4786;SDS011;62338;48.832;9.422;2023-03-31T10:01:03;4.03;;;1.33;;
4786;SDS011;62338;48.832;9.422;2023-03-31T10:03:11;3.13;;;1.23;;
4786;SDS011;62338;48.832;9.422;2023-03-31T10:05:25;3.80;;;1.10;;
4786;SDS011;62338;48.832;9.422;2023-03-31T10:07:29;9.43;;;2.20;;
4786;SDS011;62338;48.832;9.422;2023-03-31T10:09:32;7.70;;;1.43;;
4786;SDS011;62338;48.832;9.422;2023-03-31T10:11:38;3.90;;;1.03;;
4786;SDS011;62338;48.832;9.422;2023-03-31T10:14:12;9.30;;;2.03;;
4786;SDS011;62338;48.832;9.422;2023-03-31T10:16:29;5.03;;;2.10;;
4786;SDS011;62338;48.832;9.422;2023-03-31T10:18:42;9.13;;;1.60;;
4786;SDS011;62338;48.832;9.422;2023-03-31T10:20:49;6.93;;;1.60;;
4786;SDS011;62338;48.832;9.422;2023-03-31T10:22:53;2.97;;;1.07;;
4786;SDS011;62338;48.832;9.422;2023-03-31T10:24:56;4.93;;;1.20;;
4786;SDS011;62338;48.832;9.422;2023-03-31T10:27:14;6.73;;;1.77;;
4786;SDS011;62338;48.832;9.422;2023-03-31T10:29:32;7.23;;;1.47;;
4786;SDS011;62338;48.832;9.422;2023-03-31T10:31:35;7.43;;;1.60;;
4786;SDS011;62338;48.832;9.422;2023-03-31T10:33:45;5.70;;;1.60;;
4786;SDS011;62338;48.832;9.422;2023-03-31T10:35:49;3.47;;;1.33;;
4786;SDS011;62338;48.832;9.422;2023-03-31T10:38:15;4.10;;;1.37;;
4786;SDS011;62338;48.832;9.422;2023-03-31T10:40:24;7.43;;;2.27;;
4786;SDS011;62338;48.832;9.422;2023-03-31T10:42:28;9.17;;;2.13;;
4786;SDS011;62338;48.832;9.422;2023-03-31T10:44:39;5.77;;;1.60;;
4786;SDS011;62338;48.832;9.422;2023-03-31T10:46:48;5.47;;;1.40;;
4786;SDS011;62338;48.832;9.422;2023-03-31T10:48:53;10.93;;;1.83;;
4786;SDS011;62338;48.832;9.422;2023-03-31T10:51:37;5.77;;;1.90;;
4786;SDS011;62338;48.832;9.422;2023-03-31T10:53:28;12.13;;;1.93;;
4786;SDS011;62338;48.832;9.422;2023-03-31T11:05:14;7.70;;;1.97;;
4786;SDS011;62338;48.832;9.422;2023-03-31T11:07:50;9.60;;;2.13;;
4786;SDS011;62338;48.832;9.422;2023-03-31T11:19:10;6.83;;;1.60;;
4786;SDS011;62338;48.832;9.422;2023-03-31T11:29:08;5.83;;;1.50;;
4786;SDS011;62338;48.832;9.422;2023-03-31T11:31:30;7.13;;;1.33;;
4786;SDS011;62338;48.832;9.422;2023-03-31T11:33:37;4.90;;;1.53;;
4786;SDS011;62338;48.832;9.422;2023-03-31T11:38:21;3.87;;;0.90;;
4786;SDS011;62338;48.832;9.422;2023-03-31T11:42:41;5.63;;;1.30;;
4786;SDS011;62338;48.832;9.422;2023-03-31T11:44:51;2.43;;;1.03;;
4786;SDS011;62338;48.832;9.422;2023-03-31T11:47:06;3.10;;;1.10;;
4786;SDS011;62338;48.832;9.422;2023-03-31T11:51:25;2.57;;;1.10;;
4786;SDS011;62338;48.832;9.422;2023-03-31T11:53:34;7.73;;;1.20;;
4786;SDS011;62338;48.832;9.422;2023-03-31T11:55:38;2.30;;;1.00;;
4786;SDS011;62338;48.832;9.422;2023-03-31T11:57:43;5.80;;;1.00;;
4786;SDS011;62338;48.832;9.422;2023-03-31T11:59:54;3.97;;;1.07;;
4786;SDS011;62338;48.832;9.422;2023-03-31T12:02:14;2.73;;;1.00;;
4786;SDS011;62338;48.832;9.422;2023-03-31T12:04:26;2.93;;;1.10;;
4786;SDS011;62338;48.832;9.422;2023-03-31T12:06:31;5.17;;;1.20;;
4786;SDS011;62338;48.832;9.422;2023-03-31T12:08:40;2.63;;;0.90;;
4786;SDS011;62338;48.832;9.422;2023-03-31T12:11:10;1.70;;;0.80;;
4786;SDS011;62338;48.832;9.422;2023-03-31T12:13:32;1.93;;;0.90;;
4786;SDS011;62338;48.832;9.422;2023-03-31T12:15:40;1.87;;;0.93;;
4786;SDS011;62338;48.832;9.422;2023-03-31T12:17:47;1.60;;;0.90;;
4786;SDS011;62338;48.832;9.422;2023-03-31T12:20:34;1.80;;;0.80;;
4786;SDS011;62338;48.832;9.422;2023-03-31T12:22:39;4.03;;;1.03;;
4786;SDS011;62338;48.832;9.422;2023-03-31T12:24:44;6.03;;;1.10;;
4786;SDS011;62338;48.832;9.422;2023-03-31T12:29:21;2.30;;;0.87;;
4786;SDS011;62338;48.832;9.422;2023-03-31T12:31:34;5.73;;;0.90;;
4786;SDS011;62338;48.832;9.422;2023-03-31T12:33:42;2.20;;;0.80;;
4786;SDS011;62338;48.832;9.422;2023-03-31T12:35:53;1.90;;;0.70;;
4786;SDS011;62338;48.832;9.422;2023-03-31T12:43:58;4.13;;;0.97;;
4786;SDS011;62338;48.832;9.422;2023-03-31T12:46:28;2.80;;;0.90;;
4786;SDS011;62338;48.832;9.422;2023-03-31T12:48:39;2.77;;;1.17;;
4786;SDS011;62338;48.832;9.422;2023-03-31T12:53:15;3.00;;;0.93;;
4786;SDS011;62338;48.832;9.422;2023-03-31T12:57:40;4.07;;;1.40;;
4786;SDS011;62338;48.832;9.422;2023-03-31T12:59:43;4.90;;;1.10;;
4786;SDS011;62338;48.832;9.422;2023-03-31T13:04:21;6.60;;;1.40;;
4786;SDS011;62338;48.832;9.422;2023-03-31T13:11:06;4.57;;;1.07;;
4786;SDS011;62338;48.832;9.422;2023-03-31T13:13:14;4.33;;;1.10;;
4786;SDS011;62338;48.832;9.422;2023-03-31T13:15:17;4.37;;;1.10;;
4786;SDS011;62338;48.832;9.422;2023-03-31T13:17:29;4.63;;;1.40;;
4786;SDS011;62338;48.832;9.422;2023-03-31T13:19:33;6.33;;;1.20;;
4786;SDS011;62338;48.832;9.422;2023-03-31T13:21:53;3.07;;;1.03;;
4786;SDS011;62338;48.832;9.422;2023-03-31T13:23:59;6.07;;;1.20;;
4786;SDS011;62338;48.832;9.422;2023-03-31T13:26:03;5.37;;;1.57;;
4786;SDS011;62338;48.832;9.422;2023-03-31T13:28:13;3.30;;;1.23;;
4786;SDS011;62338;48.832;9.422;2023-03-31T13:32:36;3.87;;;1.00;;
4786;SDS011;62338;48.832;9.422;2023-03-31T13:34:41;4.80;;;1.40;;
4786;SDS011;62338;48.832;9.422;2023-03-31T13:41:22;4.93;;;0.80;;
4786;SDS011;62338;48.832;9.422;2023-03-31T13:48:37;2.00;;;0.80;;
4786;SDS011;62338;48.832;9.422;2023-03-31T13:53:15;3.20;;;0.93;;
4786;SDS011;62338;48.832;9.422;2023-03-31T14:00:42;4.43;;;1.00;;
4786;SDS011;62338;48.832;9.422;2023-03-31T14:05:22;2.07;;;0.70;;
4786;SDS011;62338;48.832;9.422;2023-03-31T14:07:37;3.00;;;0.70;;
4786;SDS011;62338;48.832;9.422;2023-03-31T14:09:46;2.27;;;0.80;;
4786;SDS011;62338;48.832;9.422;2023-03-31T14:11:51;2.37;;;0.70;;
4786;SDS011;62338;48.832;9.422;2023-03-31T14:13:57;6.97;;;0.70;;
4786;SDS011;62338;48.832;9.422;2023-03-31T14:15:59;1.87;;;0.70;;
4786;SDS011;62338;48.832;9.422;2023-03-31T14:18:02;2.00;;;0.80;;
4786;SDS011;62338;48.832;9.422;2023-03-31T14:24:38;1.70;;;0.70;;
4786;SDS011;62338;48.832;9.422;2023-03-31T14:26:57;1.80;;;0.60;;
4786;SDS011;62338;48.832;9.422;2023-03-31T14:29:44;1.83;;;0.70;;
4786;SDS011;62338;48.832;9.422;2023-03-31T14:36:28;2.77;;;0.87;;
4786;SDS011;62338;48.832;9.422;2023-03-31T14:38:48;4.33;;;0.80;;
4786;SDS011;62338;48.832;9.422;2023-03-31T14:40:51;2.60;;;0.90;;
4786;SDS011;62338;48.832;9.422;2023-03-31T14:42:56;3.20;;;0.90;;
4786;SDS011;62338;48.832;9.422;2023-03-31T14:45:02;2.63;;;0.90;;
4786;SDS011;62338;48.832;9.422;2023-03-31T14:47:10;3.43;;;0.80;;
4786;SDS011;62338;48.832;9.422;2023-03-31T14:49:23;4.60;;;1.10;;
4786;SDS011;62338;48.832;9.422;2023-03-31T14:51:36;2.60;;;0.80;;
4786;SDS011;62338;48.832;9.422;2023-03-31T14:53:44;2.73;;;0.80;;
4786;SDS011;62338;48.832;9.422;2023-03-31T14:55:46;2.77;;;0.97;;
4786;SDS011;62338;48.832;9.422;2023-03-31T14:57:59;2.80;;;0.67;;
4786;SDS011;62338;48.832;9.422;2023-03-31T15:00:05;4.27;;;0.90;;
4786;SDS011;62338;48.832;9.422;2023-03-31T15:02:12;2.40;;;0.80;;
4786;SDS011;62338;48.832;9.422;2023-03-31T15:04:18;3.50;;;0.80;;
4786;SDS011;62338;48.832;9.422;2023-03-31T15:06:35;2.30;;;0.80;;
4786;SDS011;62338;48.832;9.422;2023-03-31T15:08:41;2.60;;;0.73;;
4786;SDS011;62338;48.832;9.422;2023-03-31T15:10:43;2.37;;;1.00;;